Time;durP1;ratioP1;P1;durP2;ratioP2;P2;SDS_P1;SDS_P2;PMS_P1;PMS_P2;Temp;Humidity;BMP_temperature;BMP_pressure;BME280_temperature;BME280_humidity;BME280_pressure;Samples;Min_cycle;Max_cycle;Signal;HPM_P1;HPM_P2
2021/05/24 00:02:21;;;;;;;58.20;32.58;;;;;;;-150.07;59.19;61784.22;4878708;29;20029;-83
2021/05/24 00:04:48;;;;;;;54.25;34.30;;;;;;;-150.07;59.37;63075.59;4893274;29;20021;-83
2021/05/24 00:07:15;;;;;;;62.22;34.92;;;;;;;-150.07;59.47;63002.34;4898251;29;20020;-81
2021/05/24 00:09:44;;;;;;;60.72;33.85;;;;;;;-150.07;59.72;63245.19;4887850;29;20056;-83
2021/05/24 00:12:11;;;;;;;63.45;33.92;;;;;;;-150.07;59.79;62177.66;4896152;29;20024;-82
2021/05/24 00:14:39;;;;;;;62.17;33.25;;;;;;;-150.07;59.75;63404.28;4884512;29;20056;-82
2021/05/24 00:17:07;;;;;;;52.50;32.45;;;;;;;-150.07;58.76;62420.44;4892409;29;20056;-82
2021/05/24 00:19:34;;;;;;;66.03;34.35;;;;;;;-150.07;58.12;61832.34;4896005;29;20076;-82
2021/05/24 00:22:01;;;;;;;55.08;34.45;;;;;;;-150.07;59.34;62326.25;4878641;29;20021;-81
2021/05/24 00:24:28;;;;;;;64.85;34.55;;;;;;;-150.07;59.26;62386.94;4887613;29;20016;-82
2021/05/24 00:26:55;;;;;;;72.18;34.83;;;;;;;-150.07;59.22;63291.22;4913679;29;20032;-82
2021/05/24 00:29:22;;;;;;;60.10;34.55;;;;;;;-150.07;59.04;63115.38;4913759;29;20024;-82
2021/05/24 00:31:52;;;;;;;69.00;37.75;;;;;;;-150.07;59.61;62315.78;4901348;29;20439;-84
2021/05/24 00:34:18;;;;;;;;;;;;;;;-150.07;58.74;62506.25;4895504;29;20047;-83
2021/05/24 00:36:45;;;;;;;71.18;41.67;;;;;;;-150.07;57.46;62198.59;4894399;29;20433;-82
2021/05/24 00:39:12;;;;;;;54.85;34.38;;;;;;;-150.07;56.38;63316.34;4895221;29;20872;-83
2021/05/24 00:41:41;;;;;;;63.78;38.35;;;;;;;-150.07;56.99;62056.25;4895337;29;20041;-82
2021/05/24 00:44:10;;;;;;;60.45;38.78;;;;;;;-150.07;57.30;62506.25;4882360;29;20059;-83
2021/05/24 00:46:38;;;;;;;65.78;36.70;;;;;;;-150.07;56.94;62418.34;4880971;29;20033;-82
2021/05/24 00:49:07;;;;;;;70.25;37.50;;;;;;;-150.07;58.24;62864.19;4888574;29;20463;-82
2021/05/24 00:51:35;;;;;;;62.00;36.15;;;;;;;-150.07;57.11;62192.31;4884457;29;20133;-81
2021/05/24 00:54:03;;;;;;;75.72;34.95;;;;;;;-150.07;57.70;62064.63;4899720;29;20036;-81
2021/05/24 00:56:30;;;;;;;67.25;34.67;;;;;;;-150.07;58.87;62286.47;4914142;29;20028;-80
2021/05/24 00:58:58;;;;;;;79.45;36.53;;;;;;;-150.07;57.84;63289.13;4906258;29;20028;-82
2021/05/24 01:01:28;;;;;;;73.10;34.17;;;;;;;-150.07;57.38;63613.66;4879782;29;20037;-81
2021/05/24 01:03:57;;;;;;;68.88;37.40;;;;;;;-150.07;56.97;63381.25;4891997;29;20031;-81
2021/05/24 01:06:24;;;;;;;52.75;32.25;;;;;;;-150.07;57.16;63573.88;4896568;29;20099;-81
2021/05/24 01:08:51;;;;;;;58.63;31.48;;;;;;;-150.07;57.96;62449.75;4894900;29;20044;-85
2021/05/24 01:11:21;;;;;;;46.38;28.67;;;;;;;-150.07;57.16;62468.56;4878278;29;20459;-82
2021/05/24 01:13:48;;;;;;;;;;;;;;;-150.07;57.13;62468.56;4908405;29;20032;-81
2021/05/24 01:16:15;;;;;;;48.20;26.20;;;;;;;-150.07;56.38;62510.44;4895336;29;19923;-81
2021/05/24 01:18:43;;;;;;;41.22;26.95;;;;;;;-150.07;56.08;63496.41;4875223;29;20040;-84
2021/05/24 01:21:14;;;;;;;43.00;24.38;;;;;;;-150.07;54.98;62347.19;4861860;29;20021;-83
2021/05/24 01:23:46;;;;;;;36.60;23.48;;;;;;;-150.07;55.33;62552.31;4878079;29;20039;-85
2021/05/24 01:26:16;;;;;;;40.00;23.10;;;;;;;-150.07;54.66;62424.63;4869872;29;20033;-84
2021/05/24 01:28:43;;;;;;;38.67;20.15;;;;;;;-150.07;53.79;62686.25;4878166;29;20175;-85
2021/05/24 01:31:11;;;;;;;41.83;22.17;;;;;;;-150.07;53.99;62303.22;4881680;29;20035;-86
2021/05/24 01:33:38;;;;;;;39.05;22.75;;;;;;;-150.07;55.73;63776.94;4887813;29;20027;-86
2021/05/24 01:36:09;;;;;;;50.85;25.80;;;;;;;-150.07;56.09;62587.88;4866928;29;20403;-86
2021/05/24 01:38:38;;;;;;;66.13;29.80;;;;;;;-150.07;58.12;62244.63;4860831;29;20028;-86
2021/05/24 01:41:06;;;;;;;58.45;29.48;;;;;;;-150.07;58.84;62420.44;4870576;29;20092;-85
2021/05/24 01:43:33;;;;;;;53.22;28.30;;;;;;;-150.07;58.19;62232.06;4889367;29;20489;-85
2021/05/24 01:46:00;;;;;;;54.58;28.77;;;;;;;-150.07;57.89;62613.00;4879663;29;20065;-85
2021/05/24 01:48:28;;;;;;;57.30;27.70;;;;;;;-150.07;57.79;62175.56;4895356;29;20490;-84
2021/05/24 01:50:55;;;;;;;56.30;29.77;;;;;;;-150.07;57.67;63726.69;4914212;29;20470;-83
2021/05/24 01:53:23;;;;;;;63.13;31.77;;;;;;;-150.07;57.89;62508.34;4900581;29;20028;-84
2021/05/24 01:55:50;;;;;;;51.75;29.58;;;;;;;-150.07;57.98;62378.56;4899226;29;20111;-86
2021/05/24 01:58:19;;;;;;;45.47;27.33;;;;;;;-150.07;57.15;62378.56;4882359;29;20491;-85
2021/05/24 02:00:46;;;;;;;52.47;27.83;;;;;;;-150.07;57.51;62481.13;4882438;29;20037;-85
2021/05/24 02:03:13;;;;;;;44.63;23.52;;;;;;;-150.07;56.92;62564.84;4888628;29;20099;-85
2021/05/24 02:05:40;;;;;;;48.88;22.10;;;;;;;-150.07;56.91;62470.66;4879482;29;20037;-85
2021/05/24 02:08:07;;;;;;;47.42;22.02;;;;;;;-150.07;56.78;61792.56;4882622;29;20032;-83
2021/05/24 02:10:37;;;;;;;43.55;24.88;;;;;;;-150.07;57.13;63785.31;4878282;29;20028;-84
2021/05/24 02:13:06;;;;;;;41.58;21.83;;;;;;;-150.07;57.32;62449.75;4875040;29;20036;-84
2021/05/24 02:15:39;;;;;;;44.03;20.58;;;;;;;-150.07;57.37;62204.84;4892033;29;20049;-83
2021/05/24 02:18:07;;;;;;;37.67;23.48;;;;;;;-150.07;57.74;62485.31;4902887;29;20084;-86
2021/05/24 02:20:34;;;;;;;38.60;21.65;;;;;;;-150.07;58.26;62451.84;4879739;29;20115;-85
2021/05/24 02:23:05;;;;;;;32.80;22.67;;;;;;;-150.07;58.44;61842.81;4881997;29;20032;-83
2021/05/24 02:25:32;;;;;;;36.75;22.33;;;;;;;-150.07;57.81;62357.66;4882903;29;20044;-88
2021/05/24 02:28:01;;;;;;;29.25;20.40;;;;;;;-150.07;58.24;62265.56;4894354;29;20116;-84
2021/05/24 02:30:28;;;;;;;38.80;20.85;;;;;;;-150.07;59.44;61913.94;4863859;29;20057;-83
2021/05/24 02:32:56;;;;;;;28.92;18.55;;;;;;;-150.07;58.85;61913.94;4864284;29;20108;-86
2021/05/24 02:35:25;;;;;;;28.40;18.73;;;;;;;-150.07;59.19;61943.25;4893106;29;20589;-84
2021/05/24 02:37:53;;;;;;;33.80;18.90;;;;;;;-150.07;59.02;62405.78;4887780;29;20040;-83
2021/05/24 02:40:21;;;;;;;32.10;17.52;;;;;;;-150.07;58.73;62064.63;4901304;29;20032;-84
2021/05/24 02:42:49;;;;;;;29.05;14.95;;;;;;;-150.07;57.15;62374.38;4883434;29;20024;-84
2021/05/24 02:45:19;;;;;;;25.58;13.52;;;;;;;-150.07;57.11;62384.84;4884330;29;20052;-80
2021/05/24 02:47:47;;;;;;;25.88;13.80;;;;;;;-150.07;56.66;62368.09;4898383;29;20025;-78
2021/05/24 02:50:21;;;;;;;34.17;13.93;;;;;;;-150.07;57.54;62361.84;4878878;29;20041;-78
2021/05/24 02:52:48;;;;;;;19.92;11.48;;;;;;;-150.07;57.12;62399.50;4878925;29;20028;-80
2021/05/24 02:55:15;;;;;;;28.90;12.05;;;;;;;-150.07;56.68;62265.56;4890584;29;20040;-77
2021/05/24 02:57:42;;;;;;;20.02;10.90;;;;;;;-150.07;57.11;62378.56;4897770;29;20025;-81
2021/05/24 03:00:10;;;;;;;28.58;10.07;;;;;;;-150.07;56.51;62403.69;4881393;29;20040;-78
2021/05/24 03:02:47;;;;;;;31.50;10.98;;;;;;;-150.07;57.11;61834.44;4912572;29;20074;-79
2021/05/24 03:05:17;;;;;;;32.83;9.75;;;;;;;-150.07;56.64;62453.94;4880027;29;20029;-79
2021/05/24 03:07:44;;;;;;;28.95;9.50;;;;;;;-150.07;56.25;62221.59;4894542;29;20033;-79
2021/05/24 03:10:13;;;;;;;22.63;9.75;;;;;;;-150.07;56.05;62384.84;4895235;29;20088;-79
2021/05/24 03:12:40;;;;;;;34.63;11.80;;;;;;;-150.07;56.12;62416.25;4894663;29;20036;-78
2021/05/24 03:15:07;;;;;;;30.73;10.23;;;;;;;-150.07;55.28;62366.03;4896653;29;20498;-80
2021/05/24 03:17:34;;;;;;;27.88;10.43;;;;;;;-150.07;55.61;62412.06;4896888;29;20053;-78
2021/05/24 03:20:01;;;;;;;31.42;11.05;;;;;;;-150.07;55.91;62198.59;4911407;29;20043;-78
2021/05/24 03:22:28;;;;;;;53.55;11.55;;;;;;;-150.07;56.11;62458.13;4915445;29;20028;-79
2021/05/24 03:24:55;;;;;;;25.67;10.65;;;;;;;-150.07;55.47;63575.97;4905938;29;20032;-77
2021/05/24 03:27:22;;;;;;;33.20;10.57;;;;;;;-150.07;54.38;62173.47;4896614;29;20071;-79
2021/05/24 03:29:48;;;;;;;34.88;10.98;;;;;;;-150.07;55.02;62405.78;4894900;29;20055;-79
2021/05/24 03:32:16;;;;;;;24.13;10.27;;;;;;;-150.07;55.51;62437.19;4891885;29;20039;-79
2021/05/24 03:34:43;;;;;;;33.50;10.50;;;;;;;-150.07;56.06;63745.53;4887378;29;20036;-78
2021/05/24 03:37:10;;;;;;;30.85;12.07;;;;;;;-150.07;55.88;62495.78;4897065;29;20028;-79
2021/05/24 03:39:37;;;;;;;29.17;13.75;;;;;;;-150.07;56.43;62273.94;4893690;29;20072;-78
2021/05/24 03:42:04;;;;;;;26.98;10.45;;;;;;;-150.07;55.21;62319.97;4896317;29;20505;-78
2021/05/24 03:44:31;;;;;;;45.45;12.77;;;;;;;-150.07;56.56;62234.16;4899427;29;20032;-77
2021/05/24 03:46:58;;;;;;;31.17;13.18;;;;;;;-150.07;57.14;62052.09;4898496;29;20032;-86
2021/05/24 03:49:25;;;;;;;38.83;13.15;;;;;;;-150.07;56.86;62098.13;4905001;29;20032;-82
2021/05/24 03:51:52;;;;;;;31.27;12.43;;;;;;;-150.07;56.79;62464.38;4894754;29;20390;-88
2021/05/24 03:54:18;;;;;;;33.35;13.43;;;;;;;-150.07;55.38;62520.91;4891327;29;20040;-86
2021/05/24 03:56:47;;;;;;;29.15;12.27;;;;;;;-150.07;55.00;62313.69;4895681;29;20032;-89
2021/05/24 03:59:14;;;;;;;35.20;11.98;;;;;;;-150.07;57.39;62119.06;4895753;29;20028;-89
2021/05/24 04:01:41;;;;;;;33.55;12.77;;;;;;;-150.07;57.24;62110.69;4900934;29;20068;-88
2021/05/24 04:04:08;;;;;;;31.52;13.13;;;;;;;-150.07;56.75;62246.72;4905879;29;20032;-90
2021/05/24 04:06:37;;;;;;;27.83;11.60;;;;;;;-150.07;56.88;62093.94;4902679;29;20032;-89
2021/05/24 04:09:04;;;;;;;31.48;12.30;;;;;;;-150.07;57.06;62110.69;4899535;29;20033;-90
2021/05/24 04:11:32;;;;;;;37.50;12.48;;;;;;;-150.07;57.29;62062.53;4906592;29;20402;-87
2021/05/24 04:13:59;;;;;;;26.50;13.20;;;;;;;-150.07;57.13;62054.16;4899146;29;20076;-87
2021/05/24 04:16:26;;;;;;;32.17;11.30;;;;;;;-150.07;56.62;62273.94;4912243;29;20051;-90
2021/05/24 04:18:53;;;;;;;45.42;12.32;;;;;;;-150.07;57.50;63661.78;4906870;29;20521;-89
2021/05/24 04:21:20;;;;;;;24.88;12.10;;;;;;;-150.07;57.59;62116.97;4901423;29;20059;-89
2021/05/24 04:23:47;;;;;;;43.15;13.38;;;;;;;-150.07;57.05;62064.63;4900660;29;20040;-91
2021/05/24 04:26:15;;;;;;;32.38;12.23;;;;;;;-150.07;56.18;63035.84;4903092;29;20028;-90
2021/05/24 04:28:42;;;;;;;36.45;13.30;;;;;;;-150.07;55.59;62474.84;4905710;29;20032;-90
2021/05/24 04:31:09;;;;;;;35.92;10.25;;;;;;;-150.07;54.52;61997.66;4903007;29;20059;-90
2021/05/24 04:33:35;;;;;;;34.85;11.15;;;;;;;-150.07;55.02;63776.94;4904569;29;20054;-90
2021/05/24 04:36:03;;;;;;;39.53;12.50;;;;;;;-150.07;54.45;62403.69;4897808;29;20029;-90
2021/05/24 04:38:30;;;;;;;31.45;12.73;;;;;;;-150.07;54.56;61729.78;4889398;29;20025;-88
2021/05/24 04:40:57;;;;;;;48.17;12.52;;;;;;;-150.07;54.01;62437.19;4908264;29;20008;-90
2021/05/24 04:43:28;;;;;;;47.58;11.95;;;;;;;-150.07;54.03;62299.03;4896734;29;20035;-92
2021/05/24 04:45:56;;;;;;;45.88;11.75;;;;;;;-150.07;54.28;62334.63;4905441;29;20048;-90
2021/05/24 04:48:23;;;;;;;27.27;11.52;;;;;;;-150.07;55.23;62311.59;4905709;29;20087;-92
2021/05/24 04:50:50;;;;;;;36.55;12.57;;;;;;;-150.07;54.50;62361.84;4901430;29;20120;-91
2021/05/24 04:53:17;;;;;;;41.78;12.45;;;;;;;-150.07;54.52;63542.47;4903836;29;20039;-92
2021/05/24 04:55:44;;;;;;;55.17;11.35;;;;;;;-150.07;53.28;62135.78;4899385;29;20407;-92
2021/05/24 04:58:12;;;;;;;26.77;10.70;;;;;;;-150.07;53.49;62039.53;4887786;29;20047;-92
2021/05/24 05:00:41;;;;;;;39.40;10.55;;;;;;;-150.07;52.76;62372.28;4905521;29;20028;-92
2021/05/24 05:03:08;;;;;;;28.17;7.95;;;;;;;-150.07;51.49;62386.94;4904719;29;20103;-93
2021/05/24 05:05:35;;;;;;;29.27;8.82;;;;;;;-150.07;51.26;62018.59;4902928;29;20060;-93
2021/05/24 05:08:02;;;;;;;25.17;8.07;;;;;;;-150.07;50.51;62368.09;4892552;29;20021;-93
2021/05/24 05:10:29;;;;;;;28.63;9.68;;;;;;;-150.07;49.39;62173.47;4895184;29;20055;-92
2021/05/24 05:12:56;;;;;;;39.20;11.18;;;;;;;-150.07;49.53;63883.72;4892073;29;20024;-92
2021/05/24 05:15:23;;;;;;;38.50;8.68;;;;;;;-150.07;49.09;63268.19;4900973;29;20038;-92
2021/05/24 05:17:51;;;;;;;34.25;10.20;;;;;;;-150.07;49.11;62569.03;4899497;29;20057;-90
2021/05/24 05:20:18;;;;;;;38.03;8.82;;;;;;;-150.07;49.20;62253.00;4902918;29;20483;-92
2021/05/24 05:22:45;;;;;;;40.65;9.82;;;;;;;-150.07;49.80;62550.22;4889357;29;20053;-92
2021/05/24 05:25:12;;;;;;;34.08;11.02;;;;;;;-150.07;49.54;62537.66;4898323;29;20033;-93
2021/05/24 05:27:39;;;;;;;38.22;11.60;;;;;;;-150.07;49.54;62407.88;4893528;29;20070;-93
2021/05/24 05:30:07;;;;;;;51.47;10.50;;;;;;;-150.07;49.42;63132.13;4895247;29;20502;-92
2021/05/24 05:32:34;;;;;;;41.05;9.43;;;;;;;-150.07;48.79;63693.19;4899839;29;20028;-93
2021/05/24 05:35:01;;;;;;;37.75;11.32;;;;;;;-150.07;49.14;62426.72;4892885;29;20103;-93
2021/05/24 05:37:28;;;;;;;42.13;10.15;;;;;;;-150.07;49.20;62386.94;4892161;29;20092;-92
2021/05/24 05:39:58;;;;;;;45.22;10.00;;;;;;;-150.07;49.08;62114.88;4894389;29;20039;-93
2021/05/24 05:42:25;;;;;;;39.05;9.57;;;;;;;-150.07;49.32;63264.03;4909290;29;20447;-91
2021/05/24 05:44:53;;;;;;;47.17;11.43;;;;;;;-150.07;49.11;62148.34;4889799;29;20037;-91
2021/05/24 05:47:20;;;;;;;38.45;8.45;;;;;;;-150.07;49.44;62353.47;4890648;29;20035;-92
2021/05/24 05:49:50;;;;;;;49.85;10.93;;;;;;;-150.07;49.08;62353.47;4888288;29;20095;-92
2021/05/24 05:52:18;;;;;;;41.03;9.35;;;;;;;-150.07;49.26;63674.34;4895072;29;20119;-92
2021/05/24 05:54:46;;;;;;;41.75;10.98;;;;;;;-150.07;49.50;63615.75;4900437;29;20045;-93
2021/05/24 05:57:14;;;;;;;37.63;10.30;;;;;;;-150.07;50.10;62349.28;4896140;29;20028;-93
2021/05/24 05:59:41;;;;;;;31.42;11.13;;;;;;;-150.07;49.68;62391.13;4893679;29;20032;-92
2021/05/24 06:02:08;;;;;;;43.42;11.95;;;;;;;-150.07;50.34;62064.63;4900517;29;20024;-91
2021/05/24 06:04:37;;;;;;;43.08;11.93;;;;;;;-150.07;50.10;62014.41;4901595;29;20126;-90
2021/05/24 06:07:04;;;;;;;45.78;10.80;;;;;;;-150.07;49.70;62052.09;4889629;29;20032;-92
2021/05/24 06:09:31;;;;;;;48.92;9.90;;;;;;;-150.07;48.90;62158.81;4888696;29;20028;-93
2021/05/24 06:11:57;;;;;;;43.75;10.23;;;;;;;-150.07;47.47;62127.41;4911334;29;20119;-92
2021/05/24 06:14:25;;;;;;;66.47;10.18;;;;;;;-150.07;46.16;62533.47;4900090;29;20045;-91
2021/05/24 06:16:51;;;;;;;42.25;8.80;;;;;;;-150.07;46.40;62294.84;4905131;29;20040;-93
2021/05/24 06:19:18;;;;;;;51.53;9.52;;;;;;;-150.07;46.01;62579.50;4900426;29;20032;-93
2021/05/24 06:21:45;;;;;;;44.80;12.32;;;;;;;-150.07;45.48;62449.75;4889248;29;20049;-91
2021/05/24 06:24:12;;;;;;;54.33;12.57;;;;;;;-150.07;45.98;61792.56;4898430;29;20035;-91
2021/05/24 06:26:39;;;;;;;75.45;14.98;;;;;;;-150.07;46.34;63458.72;4896744;29;20032;-91
2021/05/24 06:29:08;;;;;;;52.13;12.63;;;;;;;-150.07;45.11;62583.69;4900152;29;20107;-92
2021/05/24 06:31:36;;;;;;;50.95;13.50;;;;;;;-150.07;46.29;62102.31;4895326;29;20033;-93
2021/05/24 06:34:03;;;;;;;48.92;11.13;;;;;;;-150.07;46.95;61867.91;4902518;29;20148;-91
2021/05/24 06:36:30;;;;;;;71.30;14.55;;;;;;;-150.07;46.98;61913.94;4901657;29;20012;-90
2021/05/24 06:38:57;;;;;;;61.03;14.68;;;;;;;-150.07;47.14;63477.56;4908354;29;20070;-90
2021/05/24 06:41:24;;;;;;;70.32;14.57;;;;;;;-150.07;46.67;62723.94;4897109;29;20049;-87
2021/05/24 06:43:51;;;;;;;71.93;14.65;;;;;;;-150.07;45.66;62518.81;4896357;29;20029;-92
2021/05/24 06:46:18;;;;;;;77.40;16.48;;;;;;;-150.07;46.34;62439.28;4898521;29;20092;-91
2021/05/24 06:48:45;;;;;;;61.28;12.75;;;;;;;-150.07;45.74;62290.66;4879562;29;20033;-92
2021/05/24 06:51:11;;;;;;;71.75;14.13;;;;;;;-150.07;46.02;62232.06;4896904;29;20044;-92
2021/05/24 06:53:38;;;;;;;59.40;14.43;;;;;;;-150.07;46.73;62474.84;4894714;29;20481;-92
2021/05/24 06:56:05;;;;;;;76.63;16.83;;;;;;;-150.07;47.06;61857.44;4889776;29;20041;-90
2021/05/24 06:58:32;;;;;;;70.22;16.75;;;;;;;-150.07;48.33;61922.31;4897175;29;20025;-91
2021/05/24 07:01:02;;;;;;;78.88;15.95;;;;;;;-150.07;51.52;63496.41;4917715;29;20088;-92
2021/05/24 07:03:29;;;;;;;98.88;21.17;;;;;;;-150.07;52.28;63349.84;4910653;29;20044;-93
2021/05/24 07:05:56;;;;;;;83.07;16.85;;;;;;;-150.07;52.43;62255.09;4883955;29;20040;-92
2021/05/24 07:08:25;;;;;;;90.80;18.35;;;;;;;-150.07;52.65;62244.63;4897440;29;20028;-91
2021/05/24 07:10:53;;;;;;;89.82;17.80;;;;;;;-150.07;51.77;62359.75;4896510;29;20038;-93
2021/05/24 07:13:20;;;;;;;89.85;21.35;;;;;;;-150.07;51.20;62181.84;4887356;29;20032;-92
2021/05/24 07:15:47;;;;;;;100.38;21.00;;;;;;;-150.07;51.54;62196.50;4899115;29;20036;-94
2021/05/24 07:18:15;;;;;;;120.38;21.50;;;;;;;-150.07;51.27;62445.56;4893911;29;20048;-93
2021/05/24 07:20:42;;;;;;;100.95;19.27;;;;;;;-150.07;51.00;61821.88;4910675;29;20033;-88
2021/05/24 07:23:09;;;;;;;121.32;23.38;;;;;;;-150.07;51.57;62045.81;4881871;29;20852;-87
2021/05/24 07:25:35;;;;;;;91.75;21.17;;;;;;;-150.07;51.06;62311.59;4888676;29;20032;-87
2021/05/24 07:28:02;;;;;;;95.63;20.63;;;;;;;-150.07;50.29;62424.63;4890594;29;20100;-85
2021/05/24 07:30:29;;;;;;;121.15;22.83;;;;;;;-150.07;50.38;63316.34;4899396;29;20040;-87
2021/05/24 07:32:56;;;;;;;101.75;19.38;;;;;;;-150.07;50.02;62010.22;4902210;29;20124;-90
2021/05/24 07:35:23;;;;;;;96.10;20.30;;;;;;;-150.07;50.57;62368.09;4910408;29;20069;-88
2021/05/24 07:37:50;;;;;;;128.30;25.08;;;;;;;-150.07;50.98;62026.97;4899473;29;20020;-89
2021/05/24 07:40:17;;;;;;;109.93;24.88;;;;;;;-150.07;51.57;62026.97;4900093;29;20029;-88
2021/05/24 07:42:45;;;;;;;113.97;21.33;;;;;;;-150.07;51.09;63096.53;4903926;29;20130;-89
2021/05/24 07:45:15;;;;;;;108.75;25.10;;;;;;;-150.07;52.55;62290.66;4905808;29;20061;-89
2021/05/24 07:47:42;;;;;;;92.72;23.65;;;;;;;-150.07;50.85;62313.69;4891434;29;20435;-90
2021/05/24 07:50:10;;;;;;;101.65;26.13;;;;;;;-150.07;50.88;62340.91;4885607;29;20047;-89
2021/05/24 07:52:36;;;;;;;104.85;22.95;;;;;;;-150.07;50.74;62700.91;4885087;29;20835;-91
2021/05/24 07:55:04;;;;;;;112.95;22.67;;;;;;;-150.07;50.41;62305.31;4883664;29;20489;-91
2021/05/24 07:57:32;;;;;;;108.63;21.15;;;;;;;-150.07;52.44;62296.94;4884987;29;20116;-89
2021/05/24 07:59:59;;;;;;;105.25;22.42;;;;;;;-150.07;53.55;62194.41;4884345;29;20092;-90
2021/05/24 08:02:26;;;;;;;115.70;24.67;;;;;;;-150.07;53.41;62269.75;4876487;29;20048;-90
2021/05/24 08:04:53;;;;;;;113.35;22.10;;;;;;;-150.07;53.68;62110.69;4883900;29;20506;-90
2021/05/24 08:07:20;;;;;;;86.60;22.08;;;;;;;-150.07;53.53;63188.66;4884769;29;20029;-90
2021/05/24 08:09:48;;;;;;;95.82;19.95;;;;;;;-150.07;54.20;61941.16;4879237;29;20502;-89
2021/05/24 08:12:15;;;;;;;102.25;22.17;;;;;;;-150.07;54.30;63232.63;4893875;29;20032;-90
2021/05/24 08:14:41;;;;;;;102.88;23.73;;;;;;;-150.07;55.63;62035.34;4881440;29;20511;-83
2021/05/24 08:17:08;;;;;;;132.25;27.17;;;;;;;-150.07;55.32;62160.91;4882103;29;20045;-88
2021/05/24 08:19:35;;;;;;;101.80;20.95;;;;;;;-150.07;55.67;61507.97;4880017;29;20033;-90
2021/05/24 08:22:05;;;;;;;107.15;23.88;;;;;;;-150.07;55.98;62137.88;4879633;29;20197;-87
2021/05/24 08:24:33;;;;;;;105.70;22.23;;;;;;;-150.07;55.28;62219.50;4882991;29;20182;-96
2021/05/24 08:27:00;;;;;;;107.50;24.60;;;;;;;-150.07;54.66;61947.44;4881755;29;20032;-88
2021/05/24 08:29:27;;;;;;;93.72;22.30;;;;;;;-150.07;54.38;61830.25;4883354;29;20023;-83
2021/05/24 08:31:54;;;;;;;113.82;25.52;;;;;;;-150.07;53.98;62456.03;4864332;29;20124;-86
2021/05/24 08:34:21;;;;;;;115.68;24.85;;;;;;;-150.07;54.07;62244.63;4887630;29;20043;-87
2021/05/24 08:36:48;;;;;;;93.30;24.10;;;;;;;-150.07;54.54;62232.06;4899405;29;20402;-88
2021/05/24 08:39:15;;;;;;;94.78;21.13;;;;;;;-150.07;55.10;61849.06;4901795;29;20111;-84
2021/05/24 08:41:42;;;;;;;98.47;21.42;;;;;;;-150.07;55.81;61876.28;4902688;29;20032;-90
2021/05/24 08:44:09;;;;;;;126.88;23.40;;;;;;;-150.07;55.40;62056.25;4894774;29;20028;-91
2021/05/24 08:46:42;;;;;;;130.75;23.33;;;;;;;-150.07;55.78;62200.69;4881955;29;20035;-83
2021/05/24 08:49:10;;;;;;;101.07;21.27;;;;;;;-150.07;56.63;61683.75;4897916;29;20039;-84
2021/05/24 08:51:37;;;;;;;96.90;22.85;;;;;;;-150.07;56.54;63144.69;4879961;29;20399;-86
2021/05/24 08:54:05;;;;;;;96.32;20.90;;;;;;;-150.07;55.71;62183.94;4896349;29;20042;-84
2021/05/24 08:56:31;;;;;;;108.20;23.83;;;;;;;-150.07;55.85;61847.00;4896491;29;20119;-85
2021/05/24 08:59:00;;;;;;;93.10;22.83;;;;;;;-150.07;55.52;61964.19;4878854;29;20036;-86
2021/05/24 09:01:28;;;;;;;101.30;23.90;;;;;;;-150.07;55.47;62363.94;4880628;29;20487;-88
2021/05/24 09:04:01;;;;;;;108.65;26.77;;;;;;;-150.07;56.11;62093.94;4859498;29;20554;-80
2021/05/24 09:06:42;;;;;;;106.30;22.85;;;;;;;-150.07;58.15;62035.34;4916435;29;20031;-84
2021/05/24 09:09:13;;;;;;;131.63;28.40;;;;;;;-150.07;58.69;61365.69;4892303;29;20494;-86
2021/05/24 09:11:42;;;;;;;131.40;27.50;;;;;;;-150.07;59.85;61863.72;4881283;29;20032;-85
2021/05/24 09:14:20;;;;;;;109.57;24.95;;;;;;;-150.07;60.60;61857.44;4879390;29;20520;-82
2021/05/24 09:16:57;;;;;;;99.22;24.45;;;;;;;-150.07;60.40;61874.19;4895498;29;20048;-82
2021/05/24 09:19:27;;;;;;;115.65;25.10;;;;;;;-150.07;60.82;61826.06;4879162;29;20159;-82
2021/05/24 09:21:59;;;;;;;114.30;24.50;;;;;;;-150.07;60.92;61685.84;4909072;29;20389;-83
2021/05/24 09:24:34;;;;;;;127.93;26.77;;;;;;;-150.07;61.01;61811.41;4896179;29;20036;-82
2021/05/24 09:27:03;;;;;;;126.15;28.50;;;;;;;-150.07;61.45;61775.84;4891601;29;20513;-84
2021/05/24 09:29:44;;;;;;;129.88;28.65;;;;;;;-150.07;61.68;62391.13;4895484;29;20036;-84
2021/05/24 09:32:19;;;;;;;112.53;26.42;;;;;;;-150.07;61.24;61664.94;4904283;29;20024;-86
2021/05/24 09:34:48;;;;;;;129.40;25.58;;;;;;;-150.07;60.27;61878.38;4876528;29;20100;-81
2021/05/24 09:37:29;;;;;;;112.18;30.33;;;;;;;-150.07;59.77;61817.69;4876509;29;20514;-82
2021/05/24 09:39:56;;;;;;;109.20;26.35;;;;;;;-150.07;60.12;61719.34;4877140;29;20068;-83
2021/05/24 09:42:26;;;;;;;120.68;26.25;;;;;;;-150.07;60.64;61853.25;4876548;29;20029;-80
2021/05/24 09:44:54;;;;;;;117.00;26.35;;;;;;;-150.07;60.85;61771.66;4900688;29;20040;-79
2021/05/24 09:47:38;;;;;;;117.75;26.15;;;;;;;-150.07;60.47;61817.69;4894249;29;20051;-79
2021/05/24 09:50:21;;;;;;;130.55;27.75;;;;;;;-150.07;61.00;62843.25;4892113;29;20032;-79
2021/05/24 09:52:48;;;;;;;115.70;26.38;;;;;;;-150.07;60.85;61786.31;4894892;29;20061;-80
2021/05/24 09:55:15;;;;;;;118.00;28.10;;;;;;;-150.07;60.77;61807.22;4894051;29;20471;-80
2021/05/24 09:58:05;;;;;;;118.13;28.05;;;;;;;-150.07;60.04;62003.94;4902641;29;20036;-79
2021/05/24 10:01:02;;;;;;;111.90;23.45;;;;;;;-150.07;59.15;61901.41;4908759;29;20039;-81
2021/05/24 10:03:31;;;;;;;119.10;28.35;;;;;;;-150.07;56.11;62154.63;4900349;29;20100;-81
2021/05/24 10:05:58;;;;;;;102.80;21.30;;;;;;;-150.07;55.62;61855.34;4904275;29;20024;-81
2021/05/24 10:08:25;;;;;;;94.30;22.98;;;;;;;-150.07;55.11;61930.69;4899919;29;20063;-80
2021/05/24 10:10:52;;;;;;;111.82;25.40;;;;;;;-150.07;55.43;62006.03;4904800;29;20055;-79
2021/05/24 10:13:19;;;;;;;109.55;26.38;;;;;;;-150.07;54.97;61141.81;4903473;29;20808;-81
2021/05/24 10:15:48;;;;;;;122.68;29.73;;;;;;;-150.07;55.49;62020.69;4887398;29;20435;-85
2021/05/24 10:18:15;;;;;;;107.95;21.88;;;;;;;-150.07;55.68;61830.25;4869763;29;20403;-83
2021/05/24 10:20:42;;;;;;;106.22;25.52;;;;;;;-150.07;55.89;61687.94;4871063;29;20021;-82
2021/05/24 10:23:09;;;;;;;118.63;23.02;;;;;;;-150.07;56.08;61415.91;4878331;29;20116;-82
2021/05/24 10:25:36;;;;;;;106.82;25.10;;;;;;;-150.07;56.71;61838.63;4870652;29;20113;-83
2021/05/24 10:28:05;;;;;;;126.63;25.13;;;;;;;-150.07;56.33;62014.41;4867024;29;20025;-83
2021/05/24 10:30:35;;;;;;;110.90;23.50;;;;;;;-150.07;56.42;61667.00;4870129;29;20482;-82
2021/05/24 10:33:05;;;;;;;121.65;23.90;;;;;;;-150.07;56.66;62083.47;4865313;29;20033;-84
2021/05/24 10:35:35;;;;;;;116.65;24.90;;;;;;;-150.07;57.08;62054.16;4886901;29;20033;-87
2021/05/24 10:38:33;;;;;;;113.43;24.98;;;;;;;-150.07;57.16;62102.31;4844240;29;20036;-82
2021/05/24 10:41:42;;;;;;;103.88;26.38;;;;;;;-150.07;57.54;62085.56;4854458;29;20050;-85
2021/05/24 10:44:11;;;;;;;116.40;26.90;;;;;;;-150.07;57.38;62319.97;4850454;29;20042;-85
2021/05/24 10:46:39;;;;;;;121.82;25.92;;;;;;;-150.07;57.37;61646.09;4854970;29;20056;-84
2021/05/24 10:49:15;;;;;;;102.35;24.02;;;;;;;-150.07;57.59;62043.72;4854271;29;20913;-85
2021/05/24 10:51:48;;;;;;;100.90;22.05;;;;;;;-150.07;57.84;62020.69;4854961;29;20034;-85
2021/05/24 10:54:21;;;;;;;106.82;21.63;;;;;;;-150.07;58.06;62037.44;4861985;29;20033;-87
2021/05/24 10:57:00;;;;;;;93.13;23.00;;;;;;;-150.07;58.08;62073.00;4861132;29;20044;-83
2021/05/24 10:59:43;;;;;;;108.13;26.67;;;;;;;-150.07;58.49;62014.41;4850877;29;20033;-88
2021/05/24 11:02:12;;;;;;;101.45;21.92;;;;;;;-150.07;58.38;61951.63;4860208;29;20508;-84
2021/05/24 11:04:48;;;;;;;90.95;21.52;;;;;;;-150.07;59.14;61788.38;4860400;29;20048;-86
2021/05/24 11:07:34;;;;;;;100.45;23.50;;;;;;;-150.07;59.70;61955.81;4851675;29;20041;-86